createdAt,value
2023-01-11T00:00:59.867Z,3.46
2023-01-11T00:04:02.548Z,3.43
2023-01-11T00:07:04.929Z,3.44
2023-01-11T00:10:08.296Z,3.37
2023-01-11T00:13:10.611Z,3.37
2023-01-11T00:16:13.367Z,3.34
2023-01-11T00:19:15.604Z,3.32
2023-01-11T00:22:20.385Z,3.29
2023-01-11T00:25:22.984Z,3.29
2023-01-11T00:28:25.665Z,3.31
2023-01-11T00:31:28.019Z,3.28
2023-01-11T00:34:30.610Z,3.28
2023-01-11T00:37:32.890Z,3.24
2023-01-11T00:40:36.812Z,3.24
2023-01-11T00:43:57.689Z,3.22
2023-01-11T00:47:18.993Z,3.22
2023-01-11T00:50:21.297Z,3.25
2023-01-11T00:53:23.815Z,3.30
2023-01-11T00:56:26.268Z,3.29
2023-01-11T00:59:29.094Z,3.24
2023-01-11T01:02:34.521Z,3.25
2023-01-11T01:05:38.147Z,3.23
2023-01-11T01:08:40.417Z,3.25
2023-01-11T01:11:43.147Z,3.24
2023-01-11T01:14:46.986Z,3.20
2023-01-11T01:17:52.194Z,3.23
2023-01-11T01:20:54.611Z,3.25
2023-01-11T01:23:57.216Z,3.26
2023-01-11T01:26:59.789Z,3.23
2023-01-11T01:30:02.449Z,3.26
2023-01-11T01:33:05.503Z,3.23
2023-01-11T01:36:08.282Z,3.23
2023-01-11T01:39:11.304Z,3.23
2023-01-11T01:42:18.038Z,3.21
2023-01-11T01:45:38.947Z,3.15
2023-01-11T01:48:43.598Z,3.10
2023-01-11T01:51:49.885Z,3.06
2023-01-11T01:54:52.619Z,2.98
2023-01-11T01:57:57.137Z,3.04
2023-01-11T02:01:22.461Z,3.02
2023-01-11T02:04:31.161Z,2.98
2023-01-11T02:07:35.342Z,2.95
2023-01-11T02:10:37.898Z,2.96
2023-01-11T02:13:46.112Z,2.94
2023-01-11T02:16:49.009Z,2.95
2023-01-11T02:19:51.895Z,2.93
2023-01-11T02:23:12.740Z,2.92
2023-01-11T02:26:15.351Z,2.95
2023-01-11T02:29:37.903Z,2.88
2023-01-11T02:32:43.477Z,2.89
2023-01-11T02:35:57.644Z,2.93
2023-01-11T02:39:09.962Z,2.86
2023-01-11T02:42:36.906Z,2.84
2023-01-11T02:45:50.538Z,2.76
2023-01-11T02:49:05.126Z,2.76
2023-01-11T02:52:30.913Z,2.72
2023-01-11T02:55:37.151Z,2.69
2023-01-11T02:58:41.932Z,2.72
2023-01-11T03:01:46.051Z,2.65
2023-01-11T03:04:48.988Z,2.63
2023-01-11T03:08:02.200Z,2.62
2023-01-11T03:11:10.093Z,2.65
2023-01-11T03:14:12.365Z,2.60
2023-01-11T03:17:17.820Z,2.64
2023-01-11T03:20:22.983Z,2.61
2023-01-11T03:23:39.105Z,2.57
2023-01-11T03:26:49.175Z,2.55
2023-01-11T03:29:54.525Z,2.52
2023-01-11T03:33:06.923Z,2.54
2023-01-11T03:36:24.623Z,2.45
2023-01-11T03:39:29.727Z,2.49
2023-01-11T03:42:34.084Z,2.41
2023-01-11T03:45:40.071Z,2.43
2023-01-11T03:48:49.084Z,2.42
2023-01-11T03:51:53.671Z,2.41
2023-01-11T03:54:56.448Z,2.43
2023-01-11T03:57:59.921Z,2.41
2023-01-11T04:01:03.279Z,2.40
2023-01-11T04:04:06.268Z,2.38
2023-01-11T04:07:08.620Z,2.32
2023-01-11T04:10:11.482Z,2.31
2023-01-11T04:13:13.743Z,2.33
2023-01-11T04:16:16.364Z,2.28
2023-01-11T04:19:18.912Z,2.29
2023-01-11T04:22:21.728Z,2.25
2023-01-11T04:25:24.000Z,2.25
2023-01-11T04:28:26.534Z,2.24
2023-01-11T04:31:28.969Z,2.20
2023-01-11T04:34:31.585Z,2.16
2023-01-11T04:37:33.911Z,2.22
2023-01-11T04:40:36.597Z,2.20
2023-01-11T04:43:39.118Z,2.26
2023-01-11T04:46:41.746Z,2.24
2023-01-11T04:49:44.289Z,2.27
2023-01-11T04:52:46.930Z,2.25
2023-01-11T04:55:49.486Z,2.21
2023-01-11T04:58:52.117Z,2.14
2023-01-11T05:01:54.616Z,2.13
2023-01-11T05:04:57.253Z,2.16
2023-01-11T05:07:59.573Z,2.17
2023-01-11T05:11:03.613Z,2.15
2023-01-11T05:14:06.039Z,2.11
2023-01-11T05:17:13.013Z,2.13
2023-01-11T05:20:15.498Z,2.11
2023-01-11T05:23:18.200Z,2.09
2023-01-11T05:26:25.081Z,2.05
2023-01-11T05:29:28.698Z,2.05
2023-01-11T05:32:31.216Z,2.04
2023-01-11T05:35:33.832Z,1.94
2023-01-11T05:38:36.420Z,1.96
2023-01-11T05:41:39.247Z,1.90
2023-01-11T05:45:00.283Z,1.89
2023-01-11T05:48:03.064Z,1.95
2023-01-11T05:51:05.573Z,2.00
2023-01-11T05:54:10.456Z,1.99
2023-01-11T05:57:12.764Z,1.99
2023-01-11T06:00:15.584Z,2.01
2023-01-11T06:03:18.516Z,2.00
2023-01-11T06:06:21.522Z,1.94
2023-01-11T06:09:25.059Z,1.97
2023-01-11T06:12:28.205Z,1.99
2023-01-11T06:15:30.776Z,1.92
2023-01-11T06:18:34.573Z,1.90
2023-01-11T06:21:37.223Z,1.80
2023-01-11T06:24:39.513Z,1.81
2023-01-11T06:27:42.199Z,1.85
2023-01-11T06:30:44.622Z,1.85
2023-01-11T06:33:47.620Z,1.89
2023-01-11T06:36:49.980Z,1.93
2023-01-11T06:39:52.676Z,1.90
2023-01-11T06:42:55.244Z,1.94
2023-01-11T06:45:58.941Z,1.89
2023-01-11T06:49:01.994Z,1.90
2023-01-11T06:52:04.639Z,1.94
2023-01-11T06:55:07.194Z,1.87
2023-01-11T06:58:10.020Z,1.81
2023-01-11T07:01:12.558Z,1.84
2023-01-11T07:04:15.867Z,1.86
2023-01-11T07:07:18.952Z,1.88
2023-01-11T07:10:21.956Z,1.92
2023-01-11T07:13:24.353Z,1.97
2023-01-11T07:16:27.051Z,2.01
2023-01-11T07:19:29.356Z,2.08
2023-01-11T07:22:35.783Z,2.14
2023-01-11T07:25:38.508Z,2.12
2023-01-11T07:28:41.076Z,2.16
2023-01-11T07:31:43.465Z,2.21
2023-01-11T07:34:46.223Z,2.30
2023-01-11T07:37:48.652Z,2.34
2023-01-11T07:40:51.471Z,2.38
2023-01-11T07:43:53.880Z,2.48
2023-01-11T07:46:56.508Z,2.59
2023-01-11T07:49:58.973Z,2.64
2023-01-11T07:53:01.714Z,2.83
2023-01-11T07:56:04.235Z,2.88
2023-01-11T07:59:06.893Z,2.93
2023-01-11T08:02:10.762Z,3.10
2023-01-11T08:05:13.398Z,3.20
2023-01-11T08:08:15.923Z,3.54
2023-01-11T08:11:36.910Z,3.57
2023-01-11T08:14:39.236Z,3.41
2023-01-11T08:17:41.890Z,3.24
2023-01-11T08:20:45.600Z,3.13
2023-01-11T08:23:48.218Z,3.10
2023-01-11T08:26:50.622Z,3.15
2023-01-11T08:29:53.518Z,3.15
2023-01-11T08:32:57.503Z,3.17
2023-01-11T08:36:05.003Z,3.25
2023-01-11T08:39:07.476Z,3.24
2023-01-11T08:42:10.190Z,3.20
2023-01-11T08:45:12.487Z,3.22
2023-01-11T08:48:16.081Z,3.35
2023-01-11T08:51:18.434Z,3.50
2023-01-11T08:54:21.145Z,3.66
2023-01-11T08:57:23.492Z,3.72
2023-01-11T09:00:26.165Z,3.70
2023-01-11T09:03:29.526Z,3.80
2023-01-11T09:06:32.200Z,3.89
2023-01-11T09:09:34.843Z,4.02
2023-01-11T09:12:37.544Z,4.11
2023-01-11T09:15:39.851Z,4.32
2023-01-11T09:18:42.540Z,4.63
2023-01-11T09:21:46.331Z,4.85
2023-01-11T09:24:49.178Z,4.98
2023-01-11T09:27:51.874Z,4.96
2023-01-11T09:30:54.535Z,4.92
2023-01-11T09:33:56.972Z,4.88
2023-01-11T09:37:02.607Z,4.98
2023-01-11T09:40:05.565Z,5.15
2023-01-11T09:43:16.172Z,5.35
2023-01-11T09:46:19.049Z,5.49
2023-01-11T09:49:28.166Z,5.67
2023-01-11T09:52:38.325Z,5.80
2023-01-11T09:55:43.147Z,5.96
2023-01-11T09:58:59.904Z,6.20
2023-01-11T10:02:10.215Z,6.40
2023-01-11T10:05:32.179Z,6.53
2023-01-11T10:18:30.327Z,6.93
2023-01-11T10:19:41.386Z,7.06
2023-01-11T10:22:47.112Z,7.24
2023-01-11T10:25:54.935Z,7.30
2023-01-11T10:29:21.902Z,7.25
2023-01-11T10:32:34.730Z,7.36
2023-01-11T10:35:45.780Z,7.47
2023-01-11T10:38:55.016Z,7.65
2023-01-11T10:42:28.153Z,7.82
2023-01-11T10:45:37.396Z,7.79
2023-01-11T10:48:42.294Z,7.92
2023-01-11T10:51:46.862Z,7.92
2023-01-11T10:54:54.699Z,8.08
2023-01-11T10:58:10.319Z,8.05
2023-01-11T11:01:40.719Z,7.92
2023-01-11T11:04:46.451Z,8.06
2023-01-11T11:07:51.874Z,8.00
2023-01-11T11:10:54.919Z,7.89
2023-01-11T11:14:00.334Z,7.82
2023-01-11T11:17:10.035Z,7.82
2023-01-11T11:20:23.781Z,7.88
2023-01-11T11:23:28.797Z,7.81
2023-01-11T11:26:38.248Z,7.80
2023-01-11T11:29:42.582Z,7.81
2023-01-11T11:32:52.449Z,7.84
2023-01-11T11:36:00.157Z,8.05
2023-01-11T11:39:18.811Z,8.18
2023-01-11T11:42:22.238Z,8.27
2023-01-11T11:45:26.425Z,8.22
2023-01-11T11:48:34.004Z,8.33
2023-01-11T11:51:36.580Z,8.41
2023-01-11T11:54:41.857Z,8.43
2023-01-11T11:57:44.399Z,8.36
2023-01-11T12:00:49.026Z,8.42
2023-01-11T12:03:54.705Z,8.47
2023-01-11T12:07:06.204Z,8.40
2023-01-11T12:10:14.910Z,8.34
2023-01-11T12:13:27.929Z,8.39
2023-01-11T12:16:33.978Z,8.43
2023-01-11T12:19:45.841Z,8.49
2023-01-11T12:22:49.252Z,8.55
2023-01-11T12:25:51.647Z,8.63
2023-01-11T12:29:03.097Z,8.57
2023-01-11T12:32:26.529Z,8.53
2023-01-11T12:35:32.181Z,8.60
2023-01-11T12:38:51.151Z,8.58
2023-01-11T12:41:56.874Z,8.60
2023-01-11T12:45:08.427Z,8.61
2023-01-11T12:48:23.458Z,8.51
2023-01-11T12:51:41.526Z,8.55
2023-01-11T12:55:07.016Z,8.59
2023-01-11T12:58:15.688Z,8.50
2023-01-11T13:01:37.757Z,8.57
2023-01-11T13:05:00.068Z,8.58
2023-01-11T13:08:11.691Z,8.57
2023-01-11T13:11:40.351Z,8.60
2023-01-11T13:14:43.141Z,8.66
2023-01-11T13:17:53.979Z,8.66
2023-01-11T13:21:02.488Z,8.59
2023-01-11T13:24:09.675Z,8.68
2023-01-11T13:27:16.606Z,8.60
2023-01-11T13:30:20.187Z,8.54
2023-01-11T13:33:24.248Z,8.50
2023-01-11T13:36:31.348Z,8.51
2023-01-11T13:39:34.019Z,8.46
2023-01-11T13:42:45.402Z,8.38
2023-01-11T13:45:53.265Z,8.37
2023-01-11T13:48:58.155Z,8.30
2023-01-11T13:52:07.843Z,8.19
2023-01-11T13:55:20.825Z,8.07
2023-01-11T13:58:31.347Z,8.04
2023-01-11T14:01:46.664Z,7.93
2023-01-11T14:04:49.297Z,7.84
2023-01-11T14:08:01.064Z,7.75
2023-01-11T14:11:22.869Z,7.70
2023-01-11T14:14:34.490Z,7.67
2023-01-11T14:17:49.215Z,7.59
2023-01-11T14:20:57.629Z,7.50
2023-01-11T14:24:01.426Z,7.39
2023-01-11T14:27:11.495Z,7.42
2023-01-11T14:30:26.331Z,7.33
2023-01-11T14:33:29.057Z,7.25
2023-01-11T14:36:56.840Z,7.12
2023-01-11T14:40:21.510Z,6.99
2023-01-11T14:43:39.622Z,6.95
2023-01-11T14:46:50.885Z,6.85
2023-01-11T14:50:12.217Z,6.83
2023-01-11T14:53:18.344Z,6.71
2023-01-11T14:56:40.171Z,6.62
2023-01-11T14:59:43.162Z,6.55
2023-01-11T15:02:47.314Z,6.46
2023-01-11T15:05:52.675Z,6.38
2023-01-11T15:08:55.562Z,6.31
2023-01-11T15:12:10.713Z,6.18
2023-01-11T15:15:17.007Z,6.05
2023-01-11T15:18:24.552Z,5.96
2023-01-11T15:21:27.644Z,6.05
2023-01-11T15:24:31.725Z,5.99
2023-01-11T15:27:36.311Z,5.94
2023-01-11T15:30:39.311Z,5.75
2023-01-11T15:33:46.383Z,5.76
2023-01-11T15:36:54.864Z,5.66
2023-01-11T15:39:58.994Z,5.47
2023-01-11T15:43:16.694Z,5.51
2023-01-11T15:46:50.227Z,5.44
2023-01-11T15:50:15.584Z,5.49
2023-01-11T15:53:30.473Z,5.39
2023-01-11T15:57:08.235Z,5.30
2023-01-11T16:00:30.209Z,5.34
2023-01-11T16:03:44.971Z,4.99
2023-01-11T16:06:52.972Z,4.88
2023-01-11T16:10:01.794Z,4.87
2023-01-11T16:13:15.971Z,4.71
2023-01-11T16:16:18.984Z,4.59
2023-01-11T16:19:23.433Z,4.67
2023-01-11T16:22:27.525Z,4.55
2023-01-11T16:25:31.462Z,4.33
2023-01-11T16:28:34.138Z,4.34
2023-01-11T16:32:06.116Z,4.41
2023-01-11T16:35:23.570Z,4.20
2023-01-11T16:38:27.639Z,3.98
2023-01-11T16:41:51.178Z,3.83
2023-01-11T16:45:00.753Z,3.81
2023-01-11T16:48:05.096Z,3.72
2023-01-11T16:51:07.460Z,3.57
2023-01-11T16:54:14.669Z,3.51
2023-01-11T16:57:17.108Z,3.49
2023-01-11T17:00:23.446Z,3.56
2023-01-11T17:03:27.347Z,3.49
2023-01-11T17:06:34.446Z,3.43
2023-01-11T17:09:36.842Z,3.59
2023-01-11T17:12:42.895Z,3.55
2023-01-11T17:15:53.785Z,3.55
2023-01-11T17:19:07.384Z,3.54
2023-01-11T17:22:25.077Z,3.42
2023-01-11T17:25:37.323Z,3.29
2023-01-11T17:28:48.827Z,3.24
2023-01-11T17:31:51.580Z,3.18
2023-01-11T17:34:54.300Z,3.08
2023-01-11T17:37:58.960Z,3.01
2023-01-11T17:41:22.845Z,2.99
2023-01-11T17:44:44.426Z,2.95
2023-01-11T17:47:48.306Z,2.84
2023-01-11T17:50:56.873Z,2.82
2023-01-11T17:53:59.406Z,2.74
2023-01-11T17:57:02.178Z,2.63
2023-01-11T18:00:23.337Z,2.64
2023-01-11T18:03:25.968Z,2.75
2023-01-11T18:06:41.822Z,2.70
2023-01-11T18:09:48.619Z,2.64
2023-01-11T18:12:52.228Z,2.65
2023-01-11T18:15:55.003Z,2.56
2023-01-11T18:18:57.522Z,2.53
2023-01-11T18:22:00.612Z,2.49
2023-01-11T18:25:20.440Z,2.45
2023-01-11T18:28:30.216Z,2.43
2023-01-11T18:31:32.777Z,2.41
2023-01-11T18:34:36.005Z,2.36
2023-01-11T18:37:38.326Z,2.32
2023-01-11T18:40:41.129Z,2.25
2023-01-11T18:43:43.527Z,2.18
2023-01-11T18:46:46.198Z,2.22
2023-01-11T18:49:49.533Z,2.22
2023-01-11T18:52:52.284Z,2.12
2023-01-11T18:55:54.725Z,2.08
2023-01-11T18:58:58.150Z,2.04
2023-01-11T19:02:15.992Z,1.91
2023-01-11T19:05:19.867Z,1.81
2023-01-11T19:08:22.442Z,1.76
2023-01-11T19:11:27.046Z,1.68
2023-01-11T19:14:29.903Z,1.61
2023-01-11T19:17:32.638Z,1.67
2023-01-11T19:20:36.081Z,1.64
2023-01-11T19:23:38.824Z,1.59
2023-01-11T19:26:41.317Z,1.52
2023-01-11T19:29:44.216Z,1.52
2023-01-11T19:32:51.063Z,1.57
2023-01-11T19:35:53.939Z,1.52
2023-01-11T19:38:56.423Z,1.44
2023-01-11T19:42:01.434Z,1.39
2023-01-11T19:45:04.370Z,1.39
2023-01-11T19:48:07.206Z,1.41
2023-01-11T19:51:10.692Z,1.38
2023-01-11T19:54:14.779Z,1.30
2023-01-11T19:57:20.257Z,1.27
2023-01-11T20:00:22.911Z,1.21
2023-01-11T20:03:26.045Z,1.13
2023-01-11T20:06:28.481Z,1.22
2023-01-11T20:09:31.925Z,1.35
2023-01-11T20:12:34.358Z,1.45
2023-01-11T20:15:37.798Z,1.43
2023-01-11T20:18:42.430Z,1.23
2023-01-11T20:21:45.202Z,1.16
2023-01-11T20:24:47.613Z,1.10
2023-01-11T20:27:50.392Z,0.98
2023-01-11T20:30:53.507Z,0.87
2023-01-11T20:33:56.902Z,0.81
2023-01-11T20:36:59.368Z,0.96
2023-01-11T20:40:02.254Z,0.89
2023-01-11T20:43:05.068Z,0.79
2023-01-11T20:46:08.024Z,0.76
2023-01-11T20:49:10.996Z,0.74
2023-01-11T20:52:14.209Z,0.72
2023-01-11T20:55:16.668Z,0.69
2023-01-11T20:58:19.346Z,0.58
2023-01-11T21:01:31.032Z,0.47
2023-01-11T21:04:33.712Z,0.64
2023-01-11T21:07:36.477Z,0.51
2023-01-11T21:10:39.120Z,0.44
2023-01-11T21:13:41.617Z,0.40
2023-01-11T21:16:44.371Z,0.39
2023-01-11T21:19:46.751Z,0.29
2023-01-11T21:22:49.367Z,0.27
2023-01-11T21:25:54.105Z,0.22
2023-01-11T21:29:01.267Z,0.19
2023-01-11T21:32:04.417Z,0.18
2023-01-11T21:35:07.269Z,0.27
2023-01-11T21:38:10.048Z,0.19
2023-01-11T21:41:14.702Z,0.21
2023-01-11T21:44:17.838Z,0.22
2023-01-11T21:47:22.192Z,0.20
2023-01-11T21:50:25.039Z,0.10
2023-01-11T21:53:32.038Z,0.00
2023-01-11T21:56:34.732Z,0.06
2023-01-11T21:59:37.303Z,0.00
2023-01-11T22:02:39.624Z,-0.01
2023-01-11T22:05:42.336Z,-0.04
2023-01-11T22:08:45.142Z,0.00
2023-01-11T22:11:47.956Z,-0.04
2023-01-11T22:14:52.405Z,-0.10
2023-01-11T22:17:55.301Z,-0.07
2023-01-11T22:21:04.756Z,-0.03
2023-01-11T22:24:10.432Z,-0.08
2023-01-11T22:27:12.874Z,-0.10
2023-01-11T22:30:18.573Z,0.01
2023-01-11T22:33:20.984Z,-0.07
2023-01-11T22:36:24.977Z,-0.06
2023-01-11T22:39:29.401Z,-0.04
2023-01-11T22:42:33.394Z,-0.01
2023-01-11T22:45:35.821Z,0.00
2023-01-11T22:48:38.686Z,0.01
2023-01-11T22:51:41.923Z,-0.04
2023-01-11T22:54:44.593Z,-0.02
2023-01-11T22:57:46.972Z,-0.07
2023-01-11T23:00:49.852Z,-0.02
2023-01-11T23:03:52.874Z,-0.04
2023-01-11T23:06:55.492Z,-0.11
2023-01-11T23:09:58.210Z,-0.17
2023-01-11T23:13:19.772Z,-0.19
2023-01-11T23:16:22.900Z,-0.21
2023-01-11T23:19:25.634Z,-0.22
2023-01-11T23:22:27.969Z,-0.25
2023-01-11T23:25:30.569Z,-0.29
2023-01-11T23:28:34.008Z,-0.31
2023-01-11T23:31:37.792Z,-0.10
2023-01-11T23:34:40.205Z,-0.11
2023-01-11T23:37:42.875Z,-0.16
2023-01-11T23:41:06.686Z,-0.27
2023-01-11T23:44:10.791Z,-0.28
2023-01-11T23:47:22.236Z,-0.30
2023-01-11T23:50:25.089Z,-0.18
2023-01-11T23:53:27.613Z,-0.13
2023-01-11T23:56:30.948Z,-0.11
2023-01-11T23:59:33.550Z,-0.02
